Keystone, SD

8:07 AM MDT on September 23, 2014 (GMT -0600)
Rapid City | Change Station
CLOSE
Current Station
Airport
Location: Rapid City,
Elevation: 3166 ft
Nearby Weather Stations

Elev 3166 ft 44.05 °N, 103.06 °W | Updated 15 minutes ago

Overcast
Overcast
59 °F
Feels Like 59 °F
N
5
Wind Variable Wind from ENE

Today
High -- | Low -- °F
--% Chance of Precip.
Yesterday
High -- | Low -- °F
Precip. -- in
6:41 AM 6:48 PM
Waning Crescent, 0% visible
Pressure 29.89 in
Visibility 10.0 miles
Clouds Scattered Clouds 8500 ft
Scattered Clouds 11000 ft
Dew Point 55 °F
Humidity 87%
Rainfall 0.00 in
Snow Depth 1 in
UV 1 out of 12
Pollen 5.30 out of 12
Air Quality Not available.
Flu Activity Not available.
METAR KRAP 231352Z 07004KT 10SM SCT085 SCT110 15/13 A2993 RMK AO2 SLP122 T01500128

More Conditions Fewer Conditions

Pressure 29.89 in
Visibility 10.0 miles
Clouds Scattered Clouds 8500 ft
Scattered Clouds 11000 ft
Dew Point 55 °F
Humidity 87%
Rainfall 0.00 in
Snow Depth 1 in
UV 1 out of 12
Pollen 5.30 out of 12
Air Quality Not available.
Flu Activity Not available.
METAR KRAP 231352Z 07004KT 10SM SCT085 SCT110 15/13 A2993 RMK AO2 SLP122 T01500128

More Conditions Fewer Conditions

10-Day Weather Forecast

Almanac

Astronomy

Sep. 23, 2014 Rise Set
Actual Time 6:41 AM MDT 6:48 PM MDT
Civil Twilight 6:13 AM MDT 7:17 PM MDT
Nautical Twilight 5:39 AM MDT 7:51 PM MDT
Astronomical Twilight 5:04 AM MDT 8:25 PM MDT
Moon 6:07 AM MDT 6:28 PM MDT
Length of Visible Light 13h 04m
Length of Day
12h 07m
Tomorrow will be 3m 0s shorter.
Waning Crescent, 0% of the Moon is Illuminated
Today
Waning Crescent
Sep 24
New
Oct 1
First Quarter
Oct 8
Full
Oct 15
Last Quarter

Today's Extremes

State Highs State Lows

Community

WunderPhotos

Upload Photos

1,755,690 photos uploaded!

Nearby

Snow Depth

Station Depth Elevation
Blind Park 1 in 6890 ft

Earthquake Activity

City Distance Mag. Time & Date
No recent earthquake activity has been reported nearby.
Minimum magnitude displayed is 2.5.

Coastal Water Temperatures

Place Temperature
No Stations Reporting

Nearby Weather Stations